This is the latest recevied weather packets stored in our database for station/object EFOU. If no packets are shown the sender has not sent any weather packets the latest 10 day(s).
| Time | Temp. | Humidity | Pressure | Rain* | Wind** | Luminosity | Snow |
|---|---|---|---|---|---|---|---|
| 1777849627 | -0.56° C | 79% | 1007.1 hPa | - | - | - | - |
| 1777848427 | 0° C | 80% | 1007.1 hPa | - | - | - | - |
| 1777847227 | 0° C | 78% | 1007.2 hPa | - | - | - | - |
| 1777846026 | 0.56° C | 76% | 1007.3 hPa | - | - | - | - |
| 1777844826 | 2.78° C | 71% | 1007.3 hPa | - | - | - | - |
| 1777843626 | 2.78° C | 70% | 1007.4 hPa | - | - | - | - |
| 1777842426 | 2.78° C | 69% | 1007.4 hPa | - | - | - | - |
| 1777841226 | 2.78° C | 66% | 1007.4 hPa | - | - | - | - |
| 1777840026 | 3.33° C | 64% | 1007.4 hPa | - | - | - | - |
| 1777838826 | 3.89° C | 62% | 1007.5 hPa | - | - | - | - |
| 1777837626 | 4.44° C | 59% | 1007.5 hPa | - | - | - | - |
| 1777836426 | 3.89° C | 59% | 1007.5 hPa | - | - | - | - |
| 1777835226 | 4.44° C | 58% | 1007.4 hPa | - | - | - | - |
| 1777834025 | 4.44° C | 58% | 1007.4 hPa | - | - | - | - |
| 1777832825 | 5° C | 55% | 1007.5 hPa | - | - | - | - |
| 1777831625 | 5.56° C | 51% | 1007.4 hPa | - | - | - | - |
| 1777830425 | 5.56° C | 49% | 1007.3 hPa | - | - | - | - |
| 1777829231 | 6.11° C | 46% | 1007.2 hPa | - | - | - | - |
| 1777828025 | 6.67° C | 48% | 1007.3 hPa | - | - | - | - |
| 1777826825 | 6.67° C | 48% | 1007.3 hPa | - | - | - | - |
| 1777825625 | 6.67° C | 53% | 1007.3 hPa | - | - | - | - |
| 1777824425 | 5.56° C | 60% | 1007.2 hPa | - | - | - | - |
| 1777823225 | 6.11° C | 59% | 1007.2 hPa | - | - | - | - |
| 1777822025 | 6.11° C | 55% | 1007.4 hPa | - | - | - | - |
| 1777820825 | 6.67° C | 49% | 1007.3 hPa | - | - | - | - |
* Rain since midnight (hover to see other rain measurements)
** Current wind speed in m/s (hover to see current wind gust speed)